sensor_id;sensor_type;location;lat;lon;timestamp;pressure;altitude;pressure_sealevel;temperature;humidity
48606;BME280;8482;54.396;18.590;2022-12-08T15:46:52;100444.31;;;1.62;79.76
48606;BME280;8482;54.396;18.590;2022-12-08T15:49:22;100444.19;;;1.65;81.00
48606;BME280;8482;54.396;18.590;2022-12-08T15:51:50;100438.03;;;1.66;81.26
48606;BME280;8482;54.396;18.590;2022-12-08T15:54:16;100454.44;;;1.70;81.43
48606;BME280;8482;54.396;18.590;2022-12-08T15:56:51;100457.75;;;1.74;81.59
48606;BME280;8482;54.396;18.590;2022-12-08T15:59:24;100456.81;;;1.75;80.78
48606;BME280;8482;54.396;18.590;2022-12-08T16:01:51;100448.94;;;1.76;80.51
48606;BME280;8482;54.396;18.590;2022-12-08T16:04:20;100449.63;;;1.80;80.79
48606;BME280;8482;54.396;18.590;2022-12-08T16:06:49;100445.94;;;1.84;80.45
48606;BME280;8482;54.396;18.590;2022-12-08T16:09:34;100444.94;;;1.87;80.69
48606;BME280;8482;54.396;18.590;2022-12-08T16:12:00;100445.72;;;1.89;80.29
48606;BME280;8482;54.396;18.590;2022-12-08T16:14:45;100442.09;;;1.91;80.35
48606;BME280;8482;54.396;18.590;2022-12-08T16:17:17;100444.66;;;1.93;80.17
48606;BME280;8482;54.396;18.590;2022-12-08T16:19:44;100444.66;;;1.93;80.23
48606;BME280;8482;54.396;18.590;2022-12-08T16:22:20;100430.72;;;1.92;80.17
48606;BME280;8482;54.396;18.590;2022-12-08T16:24:47;100444.50;;;1.96;80.08
48606;BME280;8482;54.396;18.590;2022-12-08T16:27:32;100443.53;;;1.98;79.97
48606;BME280;8482;54.396;18.590;2022-12-08T16:30:00;100439.28;;;1.96;79.92
48606;BME280;8482;54.396;18.590;2022-12-08T16:32:26;100439.97;;;1.99;80.41
48606;BME280;8482;54.396;18.590;2022-12-08T16:34:53;100433.81;;;2.01;80.31
48606;BME280;8482;54.396;18.590;2022-12-08T16:37:22;100434.59;;;2.03;80.09
48606;BME280;8482;54.396;18.590;2022-12-08T16:39:50;100431.13;;;2.02;79.62
48606;BME280;8482;54.396;18.590;2022-12-08T16:42:23;100438.91;;;2.04;79.72
48606;BME280;8482;54.396;18.590;2022-12-08T16:45:23;100434.53;;;2.04;80.45
48606;BME280;8482;54.396;18.590;2022-12-08T16:47:52;100438.81;;;2.05;80.15
48606;BME280;8482;54.396;18.590;2022-12-08T16:50:22;100434.59;;;2.03;80.37
48606;BME280;8482;54.396;18.590;2022-12-08T16:52:55;100431.06;;;2.04;80.21
48606;BME280;8482;54.396;18.590;2022-12-08T16:55:21;100431.06;;;2.04;80.47
48606;BME280;8482;54.396;18.590;2022-12-08T16:57:47;100423.13;;;2.05;80.36
48606;BME280;8482;54.396;18.590;2022-12-08T17:00:17;100425.72;;;2.05;80.26
48606;BME280;8482;54.396;18.590;2022-12-08T17:02:44;100430.81;;;2.08;80.18
48606;BME280;8482;54.396;18.590;2022-12-08T17:05:12;100431.69;;;2.09;80.53
48606;BME280;8482;54.396;18.590;2022-12-08T17:07:41;100424.75;;;2.08;80.51
48606;BME280;8482;54.396;18.590;2022-12-08T17:10:12;100427.22;;;2.11;80.36
48606;BME280;8482;54.396;18.590;2022-12-08T17:12:38;100429.91;;;2.09;80.23
48606;BME280;8482;54.396;18.590;2022-12-08T17:15:12;100432.47;;;2.11;80.48
48606;BME280;8482;54.396;18.590;2022-12-08T17:17:39;100425.59;;;2.08;80.28
48606;BME280;8482;54.396;18.590;2022-12-08T17:20:13;100422.00;;;2.11;80.73
48606;BME280;8482;54.396;18.590;2022-12-08T17:22:39;100425.59;;;2.08;80.10
48606;BME280;8482;54.396;18.590;2022-12-08T17:25:06;100426.47;;;2.09;80.72
48606;BME280;8482;54.396;18.590;2022-12-08T17:27:32;100428.22;;;2.08;81.12
48606;BME280;8482;54.396;18.590;2022-12-08T17:29:58;100426.69;;;2.04;80.60
48606;BME280;8482;54.396;18.590;2022-12-08T17:32:26;100431.97;;;2.03;81.29
48606;BME280;8482;54.396;18.590;2022-12-08T17:34:52;100432.97;;;2.00;81.40
48606;BME280;8482;54.396;18.590;2022-12-08T17:37:18;100439.13;;;1.99;81.06
48606;BME280;8482;54.396;18.590;2022-12-08T17:39:44;100433.91;;;1.99;81.33
48606;BME280;8482;54.396;18.590;2022-12-08T17:42:10;100432.44;;;1.93;81.67
48606;BME280;8482;54.396;18.590;2022-12-08T17:44:36;100432.44;;;1.93;81.93
48606;BME280;8482;54.396;18.590;2022-12-08T17:47:03;100427.41;;;1.89;81.99
48606;BME280;8482;54.396;18.590;2022-12-08T17:49:31;100434.41;;;1.88;82.12
48606;BME280;8482;54.396;18.590;2022-12-08T17:52:05;100439.63;;;1.88;82.45
48606;BME280;8482;54.396;18.590;2022-12-08T17:54:33;100436.09;;;1.89;82.25
48606;BME280;8482;54.396;18.590;2022-12-08T17:57:01;100432.66;;;1.89;82.29
48606;BME280;8482;54.396;18.590;2022-12-08T17:59:28;100432.66;;;1.89;82.28
48606;BME280;8482;54.396;18.590;2022-12-08T18:01:55;100444.66;;;1.93;82.24
48606;BME280;8482;54.396;18.590;2022-12-08T18:04:22;100450.03;;;1.90;82.34
48606;BME280;8482;54.396;18.590;2022-12-08T18:06:49;100445.50;;;1.93;82.28
48606;BME280;8482;54.396;18.590;2022-12-08T18:09:15;100447.25;;;1.93;82.29
48606;BME280;8482;54.396;18.590;2022-12-08T18:11:43;100440.19;;;1.95;82.39
48606;BME280;8482;54.396;18.590;2022-12-08T18:14:11;100450.50;;;1.98;82.44
48606;BME280;8482;54.396;18.590;2022-12-08T18:16:44;100463.59;;;1.98;82.72
48606;BME280;8482;54.396;18.590;2022-12-08T18:19:12;100451.38;;;1.98;82.09
48606;BME280;8482;54.396;18.590;2022-12-08T18:21:39;100451.38;;;1.98;81.81
48606;BME280;8482;54.396;18.590;2022-12-08T18:24:06;100452.22;;;1.99;82.01
48606;BME280;8482;54.396;18.590;2022-12-08T18:26:33;100454.00;;;1.98;81.99
48606;BME280;8482;54.396;18.590;2022-12-08T18:28:59;100452.28;;;1.97;81.77
48606;BME280;8482;54.396;18.590;2022-12-08T18:31:25;100467.06;;;1.98;82.43
48606;BME280;8482;54.396;18.590;2022-12-08T18:33:52;100460.91;;;1.99;82.34
48606;BME280;8482;54.396;18.590;2022-12-08T18:36:23;100463.50;;;1.99;81.88
48606;BME280;8482;54.396;18.590;2022-12-08T18:38:51;100460.97;;;1.98;81.78
48606;BME280;8482;54.396;18.590;2022-12-08T18:41:21;100467.06;;;1.98;81.90
48606;BME280;8482;54.396;18.590;2022-12-08T18:43:52;100468.75;;;1.99;82.47
48606;BME280;8482;54.396;18.590;2022-12-08T18:46:18;100482.69;;;2.00;82.29
48606;BME280;8482;54.396;18.590;2022-12-08T18:48:47;100473.13;;;1.99;82.31
48606;BME280;8482;54.396;18.590;2022-12-08T18:51:20;100465.28;;;1.99;81.77
48606;BME280;8482;54.396;18.590;2022-12-08T18:53:47;100463.59;;;1.98;82.42
48606;BME280;8482;54.396;18.590;2022-12-08T18:56:29;100457.53;;;1.97;81.96
48606;BME280;8482;54.396;18.590;2022-12-08T18:59:07;100465.28;;;1.99;82.04
48606;BME280;8482;54.396;18.590;2022-12-08T19:01:37;100471.44;;;1.98;82.17
48606;BME280;8482;54.396;18.590;2022-12-08T19:04:06;100460.16;;;1.97;81.67
48606;BME280;8482;54.396;18.590;2022-12-08T19:06:37;100471.34;;;1.99;82.22
48606;BME280;8482;54.396;18.590;2022-12-08T19:09:05;100469.69;;;1.98;81.88
48606;BME280;8482;54.396;18.590;2022-12-08T19:11:32;100464.50;;;1.97;82.31
48606;BME280;8482;54.396;18.590;2022-12-08T19:13:58;100470.59;;;1.97;82.18
48606;BME280;8482;54.396;18.590;2022-12-08T19:16:23;100472.31;;;1.98;82.67
48606;BME280;8482;54.396;18.590;2022-12-08T19:18:49;100463.69;;;1.96;82.54
48606;BME280;8482;54.396;18.590;2022-12-08T19:21:15;100471.34;;;1.99;82.32
48606;BME280;8482;54.396;18.590;2022-12-08T19:23:41;100466.13;;;1.99;81.90
48606;BME280;8482;54.396;18.590;2022-12-08T19:26:07;100479.16;;;2.01;82.22
48606;BME280;8482;54.396;18.590;2022-12-08T19:28:34;100486.13;;;2.01;82.01
48606;BME280;8482;54.396;18.590;2022-12-08T19:31:06;100488.69;;;2.02;82.25
48606;BME280;8482;54.396;18.590;2022-12-08T19:33:33;100490.41;;;2.03;82.25
48606;BME280;8482;54.396;18.590;2022-12-08T19:36:08;100486.00;;;2.04;82.22
48606;BME280;8482;54.396;18.590;2022-12-08T19:38:35;100472.22;;;2.00;82.02
48606;BME280;8482;54.396;18.590;2022-12-08T19:41:22;100487.59;;;2.06;81.94
48606;BME280;8482;54.396;18.590;2022-12-08T19:44:28;100484.03;;;2.09;81.79
48606;BME280;8482;54.396;18.590;2022-12-08T19:47:13;100482.31;;;2.08;81.06
48606;BME280;8482;54.396;18.590;2022-12-08T19:49:39;100490.19;;;2.08;81.36
48606;BME280;8482;54.396;18.590;2022-12-08T19:52:06;100484.94;;;2.08;81.18
48606;BME280;8482;54.396;18.590;2022-12-08T19:54:32;100491.88;;;2.09;81.34
48606;BME280;8482;54.396;18.590;2022-12-08T19:56:58;100504.19;;;2.07;81.26
48606;BME280;8482;54.396;18.590;2022-12-08T19:59:24;100501.63;;;2.05;81.25
48606;BME280;8482;54.396;18.590;2022-12-08T20:02:00;100506.22;;;2.00;80.63
48606;BME280;8482;54.396;18.590;2022-12-08T20:04:27;100507.06;;;2.01;80.94
48606;BME280;8482;54.396;18.590;2022-12-08T20:06:55;100511.31;;;2.03;81.05
48606;BME280;8482;54.396;18.590;2022-12-08T20:09:21;100506.16;;;2.02;81.14
48606;BME280;8482;54.396;18.590;2022-12-08T20:11:47;100520.09;;;2.02;81.39
48606;BME280;8482;54.396;18.590;2022-12-08T20:14:19;100516.69;;;2.00;80.87
48606;BME280;8482;54.396;18.590;2022-12-08T20:16:45;100518.44;;;1.99;80.48
48606;BME280;8482;54.396;18.590;2022-12-08T20:19:11;100520.22;;;1.99;80.92
48606;BME280;8482;54.396;18.590;2022-12-08T20:21:38;100516.84;;;1.97;80.09
48606;BME280;8482;54.396;18.590;2022-12-08T20:24:05;100518.75;;;1.93;80.52
48606;BME280;8482;54.396;18.590;2022-12-08T20:26:31;100514.53;;;1.91;80.46
48606;BME280;8482;54.396;18.590;2022-12-08T20:28:56;100521.59;;;1.89;80.86
48606;BME280;8482;54.396;18.590;2022-12-08T20:31:26;100520.94;;;1.83;81.02
48606;BME280;8482;54.396;18.590;2022-12-08T20:33:53;100528.66;;;1.87;80.56
48606;BME280;8482;54.396;18.590;2022-12-08T20:36:21;100531.41;;;1.83;80.85
48606;BME280;8482;54.396;18.590;2022-12-08T20:38:50;100529.66;;;1.84;80.40
48606;BME280;8482;54.396;18.590;2022-12-08T20:41:18;100529.69;;;1.82;80.59
48606;BME280;8482;54.396;18.590;2022-12-08T20:43:46;100523.84;;;1.77;80.33
48606;BME280;8482;54.396;18.590;2022-12-08T20:46:15;100539.38;;;1.80;79.97
48606;BME280;8482;54.396;18.590;2022-12-08T20:48:42;100536.97;;;1.76;79.82
48606;BME280;8482;54.396;18.590;2022-12-08T20:51:16;100538.81;;;1.74;79.82
48606;BME280;8482;54.396;18.590;2022-12-08T20:53:42;100537.19;;;1.71;79.85
48606;BME280;8482;54.396;18.590;2022-12-08T20:56:17;100538.09;;;1.70;79.92
48606;BME280;8482;54.396;18.590;2022-12-08T20:58:44;100545.16;;;1.68;80.10
48606;BME280;8482;54.396;18.590;2022-12-08T21:01:14;100548.69;;;1.67;79.78
48606;BME280;8482;54.396;18.590;2022-12-08T21:03:42;100546.25;;;1.64;79.86
48606;BME280;8482;54.396;18.590;2022-12-08T21:06:08;100556.06;;;1.59;79.47
48606;BME280;8482;54.396;18.590;2022-12-08T21:08:35;100564.81;;;1.58;79.54
48606;BME280;8482;54.396;18.590;2022-12-08T21:11:02;100572.78;;;1.55;79.70
48606;BME280;8482;54.396;18.590;2022-12-08T21:13:28;100568.63;;;1.50;79.82
48606;BME280;8482;54.396;18.590;2022-12-08T21:15:54;100582.63;;;1.49;79.68
48606;BME280;8482;54.396;18.590;2022-12-08T21:18:21;100576.53;;;1.49;79.78
48606;BME280;8482;54.396;18.590;2022-12-08T21:20:49;100592.41;;;1.44;79.40
48606;BME280;8482;54.396;18.590;2022-12-08T21:23:15;100593.44;;;1.40;79.58
48606;BME280;8482;54.396;18.590;2022-12-08T21:25:44;100595.47;;;1.33;79.38
48606;BME280;8482;54.396;18.590;2022-12-08T21:28:11;100606.72;;;1.35;79.70
48606;BME280;8482;54.396;18.590;2022-12-08T21:30:41;100612.03;;;1.34;79.23
48606;BME280;8482;54.396;18.590;2022-12-08T21:33:07;100614.63;;;1.34;78.99
48606;BME280;8482;54.396;18.590;2022-12-08T21:35:33;100616.53;;;1.30;78.76
48606;BME280;8482;54.396;18.590;2022-12-08T21:37:59;100615.78;;;1.27;78.57
48606;BME280;8482;54.396;18.590;2022-12-08T21:40:25;100616.00;;;1.22;78.62
48606;BME280;8482;54.396;18.590;2022-12-08T21:42:53;100622.13;;;1.21;78.75
48606;BME280;8482;54.396;18.590;2022-12-08T21:45:20;100616.19;;;1.17;78.60
48606;BME280;8482;54.396;18.590;2022-12-08T21:47:48;100612.94;;;1.12;77.99
48606;BME280;8482;54.396;18.590;2022-12-08T21:50:14;100620.00;;;1.10;78.13
48606;BME280;8482;54.396;18.590;2022-12-08T21:52:44;100611.47;;;1.05;77.94
48606;BME280;8482;54.396;18.590;2022-12-08T21:55:12;100610.81;;;1.00;78.04
48606;BME280;8482;54.396;18.590;2022-12-08T21:57:38;100614.38;;;0.99;77.98
48606;BME280;8482;54.396;18.590;2022-12-08T22:00:13;100621.44;;;0.95;77.79
48606;BME280;8482;54.396;18.590;2022-12-08T22:02:42;100610.56;;;0.85;77.98
48606;BME280;8482;54.396;18.590;2022-12-08T22:05:09;100620.06;;;0.86;77.46
48606;BME280;8482;54.396;18.590;2022-12-08T22:07:37;100624.63;;;0.81;77.94
48606;BME280;8482;54.396;18.590;2022-12-08T22:10:04;100623.84;;;0.79;78.05
48606;BME280;8482;54.396;18.590;2022-12-08T22:12:33;100626.63;;;0.74;77.79
